ETHL

Laupheim Airport

Germany
METAR ETHL 221420Z 06007KT 9999 FEW100 13/02 Q1027 BLU+BLU+
Observed Flight Rules
Oct-22 @ 14:20 UTC (29 minutes ago) Visual Flight Rules
Wind Visibility Clouds
60° at 7 knots 10,000+ meters
  • Few at 10,000' AGL
Temperatures Readings
Current 13°C / 55°F
Dewpoint 2°C / 36°F
Humidity 47%
Altimeter 30.32" Hg
Pressure 1027 hPa
Elevation 549
METAR ETHL 221420Z 06007KT 9999 FEW100 13/02 Q1027 BLU+BLU+
Observed Flight Rules
Oct-22 @ 14:20 UTC
(29 minutes ago)
VFR
Wind Visibility
60° at 7 knots 10,000+ meters
Clouds
  • Few at 10,000' AGL
Temperature Dewpoint
13°C / 55°F 2°C / 36°F
Humidity Altimeter Pressure
47% 30.32" Hg 1027 hPa